Historique des mesures à Cassis (13260), France
Quotidien Résumé Avril 27, 2017 Unités:  US    Métrique   Métrique/US
« Précédent (Jour)
Suivant (Jour) »
Quotidien Hebdomadaire Mensuel Annuel Période au choix
  Maximum: Minimum: Moyenne:
Température: 32 °F 49.1 °F 50.5 °F
Point de rosée: 32 °F 33.1 °F 38.3 °F
Humidité: Humidity % 49 % 60 %
Vitesse du vent: WindSpeedKMH mph 4.0 mph 12 mph
Rafales: WindSpeedGustKMH mph - -
Vent:- - SSE
Pression: 0 in 29.7 in -
Précipitations: 0 in    
Historical Graphs
 
 
Mesures pour : Avril 27, 2017
Heure Temperature Point de rosée Pression Vent Vitesse du vent Rafales Humidité Pluie (par heure) Conditions
32 °F 32 °F 0 in Calm     Humidity % 0 in SoftwareType W/m2
00:10 54.3 °F 42.1 °F 29.7 in WNW 12.6 mph 14.0 mph 63 % 0 in open2300-1.11 W/m2
01:10 54.3 °F 41.5 °F 29.7 in NW 13.0 mph 16.6 mph 62 % 0 in open2300-1.11 W/m2
02:10 53.4 °F 41.5 °F 29.7 in NW 8.2 mph 8.2 mph 64 % 0 in open2300-1.11 W/m2
03:10 51.6 °F 41 °F 29.7 in NNE 7.2 mph 14.0 mph 67 % 0 in open2300-1.11 W/m2
04:10 50.5 °F 40.8 °F 29.7 in North 5.5 mph 6.1 mph 69 % 0 in open2300-1.11 W/m2
05:11 50.5 °F 40.8 °F 29.7 in NNE 4.0 mph 5.5 mph 69 % 0 in open2300-1.11 W/m2
06:10 49.3 °F 39.9 °F 29.7 in NNW 11.1 mph 15.4 mph 70 % 0 in open2300-1.11 W/m2
07:10 49.1 °F 40.1 °F 29.7 in WNW 15.1 mph 15.1 mph 71 % 0 in open2300-1.11 W/m2
08:10 49.6 °F 39.6 °F 29.7 in WNW 9.7 mph 9.7 mph 68 % 0 in open2300-1.11 W/m2
09:10 50.2 °F 39.6 °F 29.7 in West 5.0 mph 5.0 mph 67 % 0 in open2300-1.11 W/m2
10:10 50.5 °F 41.2 °F 29.7 in WNW 15.8 mph 15.8 mph 70 % 0 in open2300-1.11 W/m2
11:11 51.4 °F 39.6 °F 29.7 in NNE 9.3 mph 9.3 mph 64 % 0 in open2300-1.11 W/m2
12:10 51.1 °F 39.4 °F 29.8 in NNE 19.1 mph 24.8 mph 64 % 0 in open2300-1.11 W/m2
13:10 51.1 °F 39.4 °F 29.7 in WNW 11.9 mph 13.0 mph 64 % 0 in open2300-1.11 W/m2
14:11 51.6 °F 39.4 °F 29.7 in NE 5.8 mph 11.1 mph 63 % 0 in open2300-1.11 W/m2
15:11 51.1 °F 38.5 °F 29.7 in NNE 6.8 mph 6.8 mph 62 % 0 in open2300-1.11 W/m2
16:11 51.3 °F 38.1 °F 29.7 in North 13.7 mph 14.0 mph 61 % 0 in open2300-1.11 W/m2
17:10 50.9 °F 37.9 °F 29.7 in NE 18.0 mph 18.0 mph 61 % 0 in open2300-1.11 W/m2
18:10 53.6 °F 37.8 °F 29.7 in NW 22.4 mph 22.4 mph 55 % 0 in open2300-1.11 W/m2
19:10 53.8 °F 35.1 °F 29.7 in North 12.2 mph 14.3 mph 49 % 0 in open2300-1.11 W/m2
20:11 52.3 °F 34.3 °F 29.7 in North 13.7 mph 21.9 mph 50 % 0 in open2300-1.11 W/m2
21:10 51.6 °F 33.1 °F 29.7 in North 17.2 mph 17.2 mph 49 % 0 in open2300-1.11 W/m2
22:10 50.7 °F 33.3 °F 29.8 in NW 27.0 mph 32.3 mph 51 % 0 in open2300-1.11 W/m2
23:11 49.6 °F 33.6 °F 29.8 in North 15.4 mph 22.4 mph 54 % 0 in open2300-1.11 W/m2
Observations météo à CASSIS
WU-History script by Weather Underground - 1 mb